sensor_id;sensor_type;location;lat;lon;timestamp;temperature;humidity
14850;DHT22;7517;48.400;11.770;2023-04-24T00:01:48;15.80;82.90
14850;DHT22;7517;48.400;11.770;2023-04-24T00:04:16;15.80;83.10
14850;DHT22;7517;48.400;11.770;2023-04-24T00:06:43;15.80;83.10
14850;DHT22;7517;48.400;11.770;2023-04-24T00:09:15;15.80;83.90
14850;DHT22;7517;48.400;11.770;2023-04-24T00:11:42;15.70;83.20
14850;DHT22;7517;48.400;11.770;2023-04-24T00:14:09;15.70;83.30
14850;DHT22;7517;48.400;11.770;2023-04-24T00:16:36;15.70;83.30
14850;DHT22;7517;48.400;11.770;2023-04-24T00:19:05;15.70;83.10
14850;DHT22;7517;48.400;11.770;2023-04-24T00:21:32;15.70;83.20
14850;DHT22;7517;48.400;11.770;2023-04-24T00:23:59;15.70;84.00
14850;DHT22;7517;48.400;11.770;2023-04-24T00:26:27;15.70;83.40
14850;DHT22;7517;48.400;11.770;2023-04-24T00:28:54;15.70;83.60
14850;DHT22;7517;48.400;11.770;2023-04-24T00:31:21;15.70;83.60
14850;DHT22;7517;48.400;11.770;2023-04-24T00:33:48;15.70;83.70
14850;DHT22;7517;48.400;11.770;2023-04-24T00:36:17;15.70;83.60
14850;DHT22;7517;48.400;11.770;2023-04-24T00:38:45;15.60;83.50
14850;DHT22;7517;48.400;11.770;2023-04-24T00:41:12;15.60;83.60
14850;DHT22;7517;48.400;11.770;2023-04-24T00:43:41;15.60;83.80
14850;DHT22;7517;48.400;11.770;2023-04-24T00:46:08;15.60;83.90
14850;DHT22;7517;48.400;11.770;2023-04-24T00:48:39;15.60;83.90
14850;DHT22;7517;48.400;11.770;2023-04-24T00:51:06;15.60;83.90
14850;DHT22;7517;48.400;11.770;2023-04-24T00:53:35;15.60;83.80
14850;DHT22;7517;48.400;11.770;2023-04-24T00:56:03;15.60;83.80
14850;DHT22;7517;48.400;11.770;2023-04-24T00:58:32;15.60;83.90
14850;DHT22;7517;48.400;11.770;2023-04-24T01:01:00;15.60;83.90
14850;DHT22;7517;48.400;11.770;2023-04-24T01:03:29;15.60;83.90
14850;DHT22;7517;48.400;11.770;2023-04-24T01:05:58;15.60;83.90
14850;DHT22;7517;48.400;11.770;2023-04-24T01:08:26;15.60;84.00
14850;DHT22;7517;48.400;11.770;2023-04-24T01:10:57;15.60;83.90
14850;DHT22;7517;48.400;11.770;2023-04-24T01:13:24;15.60;83.80
14850;DHT22;7517;48.400;11.770;2023-04-24T01:15:51;15.60;83.80
14850;DHT22;7517;48.400;11.770;2023-04-24T01:18:19;15.60;83.80
14850;DHT22;7517;48.400;11.770;2023-04-24T01:20:46;15.60;83.80
14850;DHT22;7517;48.400;11.770;2023-04-24T01:23:19;15.60;83.80
14850;DHT22;7517;48.400;11.770;2023-04-24T01:25:46;15.60;83.80
14850;DHT22;7517;48.400;11.770;2023-04-24T01:28:16;15.60;83.90
14850;DHT22;7517;48.400;11.770;2023-04-24T01:30:43;15.60;83.90
14850;DHT22;7517;48.400;11.770;2023-04-24T01:33:11;15.60;84.00
14850;DHT22;7517;48.400;11.770;2023-04-24T01:35:39;15.60;84.00
14850;DHT22;7517;48.400;11.770;2023-04-24T01:38:08;15.60;84.00
14850;DHT22;7517;48.400;11.770;2023-04-24T01:40:37;15.60;83.90
14850;DHT22;7517;48.400;11.770;2023-04-24T01:43:05;15.60;83.80
14850;DHT22;7517;48.400;11.770;2023-04-24T01:45:32;15.60;83.70
14850;DHT22;7517;48.400;11.770;2023-04-24T01:48:00;15.60;83.60
14850;DHT22;7517;48.400;11.770;2023-04-24T01:50:27;15.50;84.20
14850;DHT22;7517;48.400;11.770;2023-04-24T01:52:55;15.50;84.20
14850;DHT22;7517;48.400;11.770;2023-04-24T01:55:22;15.50;84.30
14850;DHT22;7517;48.400;11.770;2023-04-24T01:57:52;15.50;83.40
14850;DHT22;7517;48.400;11.770;2023-04-24T02:00:22;15.50;83.40
14850;DHT22;7517;48.400;11.770;2023-04-24T02:02:50;15.50;83.40
14850;DHT22;7517;48.400;11.770;2023-04-24T02:05:17;15.50;83.40
14850;DHT22;7517;48.400;11.770;2023-04-24T02:07:44;15.50;83.30
14850;DHT22;7517;48.400;11.770;2023-04-24T02:10:12;15.50;83.20
14850;DHT22;7517;48.400;11.770;2023-04-24T02:12:39;15.50;83.10
14850;DHT22;7517;48.400;11.770;2023-04-24T02:15:09;15.50;82.90
14850;DHT22;7517;48.400;11.770;2023-04-24T02:17:38;15.40;82.70
14850;DHT22;7517;48.400;11.770;2023-04-24T02:20:06;15.40;82.80
14850;DHT22;7517;48.400;11.770;2023-04-24T02:22:34;15.40;82.90
14850;DHT22;7517;48.400;11.770;2023-04-24T02:25:02;15.40;82.90
14850;DHT22;7517;48.400;11.770;2023-04-24T02:27:29;15.40;82.90
14850;DHT22;7517;48.400;11.770;2023-04-24T02:29:56;15.30;82.60
14850;DHT22;7517;48.400;11.770;2023-04-24T02:32:25;15.30;82.60
14850;DHT22;7517;48.400;11.770;2023-04-24T02:34:54;15.30;83.20
14850;DHT22;7517;48.400;11.770;2023-04-24T02:37:21;15.30;82.60
14850;DHT22;7517;48.400;11.770;2023-04-24T02:39:48;15.20;82.70
14850;DHT22;7517;48.400;11.770;2023-04-24T02:42:15;15.20;82.50
14850;DHT22;7517;48.400;11.770;2023-04-24T02:44:43;15.20;82.60
14850;DHT22;7517;48.400;11.770;2023-04-24T02:47:10;15.20;82.50
14850;DHT22;7517;48.400;11.770;2023-04-24T02:49:38;15.10;82.30
14850;DHT22;7517;48.400;11.770;2023-04-24T02:52:06;15.10;82.40
14850;DHT22;7517;48.400;11.770;2023-04-24T02:54:33;15.10;82.40
14850;DHT22;7517;48.400;11.770;2023-04-24T02:57:00;15.10;82.30
14850;DHT22;7517;48.400;11.770;2023-04-24T02:59:28;15.00;82.30
14850;DHT22;7517;48.400;11.770;2023-04-24T03:01:55;15.00;82.40
14850;DHT22;7517;48.400;11.770;2023-04-24T03:04:22;15.00;82.30
14850;DHT22;7517;48.400;11.770;2023-04-24T03:06:51;15.00;82.40
14850;DHT22;7517;48.400;11.770;2023-04-24T03:09:20;15.00;82.30
14850;DHT22;7517;48.400;11.770;2023-04-24T03:11:47;15.00;82.30
14850;DHT22;7517;48.400;11.770;2023-04-24T03:14:15;14.90;82.30
14850;DHT22;7517;48.400;11.770;2023-04-24T03:16:42;14.90;82.30
14850;DHT22;7517;48.400;11.770;2023-04-24T03:19:10;14.90;82.30
14850;DHT22;7517;48.400;11.770;2023-04-24T03:21:38;14.90;82.30
14850;DHT22;7517;48.400;11.770;2023-04-24T03:24:07;14.90;82.70
14850;DHT22;7517;48.400;11.770;2023-04-24T03:26:35;14.90;82.50
14850;DHT22;7517;48.400;11.770;2023-04-24T03:29:02;14.90;82.50
14850;DHT22;7517;48.400;11.770;2023-04-24T03:31:29;14.80;82.40
14850;DHT22;7517;48.400;11.770;2023-04-24T03:33:57;14.80;82.40
14850;DHT22;7517;48.400;11.770;2023-04-24T03:36:25;14.80;82.50
14850;DHT22;7517;48.400;11.770;2023-04-24T03:38:53;14.80;82.60
14850;DHT22;7517;48.400;11.770;2023-04-24T03:41:22;14.80;82.50
14850;DHT22;7517;48.400;11.770;2023-04-24T03:43:49;14.80;82.40
14850;DHT22;7517;48.400;11.770;2023-04-24T03:46:16;14.80;82.30
14850;DHT22;7517;48.400;11.770;2023-04-24T03:48:43;14.80;82.40
14850;DHT22;7517;48.400;11.770;2023-04-24T03:51:10;14.70;82.30
14850;DHT22;7517;48.400;11.770;2023-04-24T03:53:38;14.70;82.30
14850;DHT22;7517;48.400;11.770;2023-04-24T03:56:05;14.70;82.30
14850;DHT22;7517;48.400;11.770;2023-04-24T03:58:34;14.70;82.30
14850;DHT22;7517;48.400;11.770;2023-04-24T04:01:01;14.70;82.50
14850;DHT22;7517;48.400;11.770;2023-04-24T04:03:28;14.70;82.50
14850;DHT22;7517;48.400;11.770;2023-04-24T04:05:55;14.70;82.60
14850;DHT22;7517;48.400;11.770;2023-04-24T04:08:23;14.70;82.70
14850;DHT22;7517;48.400;11.770;2023-04-24T04:10:50;14.70;82.70
14850;DHT22;7517;48.400;11.770;2023-04-24T04:13:17;14.70;82.70
14850;DHT22;7517;48.400;11.770;2023-04-24T04:15:46;14.70;82.60
14850;DHT22;7517;48.400;11.770;2023-04-24T04:18:13;14.70;82.80
14850;DHT22;7517;48.400;11.770;2023-04-24T04:20:40;14.70;82.80
14850;DHT22;7517;48.400;11.770;2023-04-24T04:23:07;14.70;82.90
14850;DHT22;7517;48.400;11.770;2023-04-24T04:25:35;14.70;82.80
14850;DHT22;7517;48.400;11.770;2023-04-24T04:28:03;14.60;82.80
14850;DHT22;7517;48.400;11.770;2023-04-24T04:30:30;14.60;82.90
14850;DHT22;7517;48.400;11.770;2023-04-24T04:32:59;14.70;83.80
14850;DHT22;7517;48.400;11.770;2023-04-24T04:35:26;14.70;83.30
14850;DHT22;7517;48.400;11.770;2023-04-24T04:37:54;14.70;83.50
14850;DHT22;7517;48.400;11.770;2023-04-24T04:40:21;14.70;83.70
14850;DHT22;7517;48.400;11.770;2023-04-24T04:42:48;14.70;83.80
14850;DHT22;7517;48.400;11.770;2023-04-24T04:45:18;14.70;83.80
14850;DHT22;7517;48.400;11.770;2023-04-24T04:47:46;14.70;83.80
14850;DHT22;7517;48.400;11.770;2023-04-24T04:50:15;14.70;83.80
14850;DHT22;7517;48.400;11.770;2023-04-24T04:52:45;14.80;83.90
14850;DHT22;7517;48.400;11.770;2023-04-24T04:55:12;14.80;84.00
14850;DHT22;7517;48.400;11.770;2023-04-24T04:57:42;14.80;84.00
14850;DHT22;7517;48.400;11.770;2023-04-24T05:00:16;14.80;84.60
14850;DHT22;7517;48.400;11.770;2023-04-24T05:02:43;14.80;83.80
14850;DHT22;7517;48.400;11.770;2023-04-24T05:05:11;14.80;83.70
14850;DHT22;7517;48.400;11.770;2023-04-24T05:07:39;14.80;83.70
14850;DHT22;7517;48.400;11.770;2023-04-24T05:10:08;14.80;83.80
14850;DHT22;7517;48.400;11.770;2023-04-24T05:12:36;14.80;83.80
14850;DHT22;7517;48.400;11.770;2023-04-24T05:15:04;14.80;83.80
14850;DHT22;7517;48.400;11.770;2023-04-24T05:17:31;14.80;83.90
14850;DHT22;7517;48.400;11.770;2023-04-24T05:19:59;14.80;83.90
14850;DHT22;7517;48.400;11.770;2023-04-24T05:22:27;14.80;84.00
14850;DHT22;7517;48.400;11.770;2023-04-24T05:24:55;14.80;84.00
14850;DHT22;7517;48.400;11.770;2023-04-24T05:27:23;14.80;84.00
14850;DHT22;7517;48.400;11.770;2023-04-24T05:29:51;14.90;84.00
14850;DHT22;7517;48.400;11.770;2023-04-24T05:32:18;14.90;84.00
14850;DHT22;7517;48.400;11.770;2023-04-24T05:34:45;14.90;83.90
14850;DHT22;7517;48.400;11.770;2023-04-24T05:37:12;14.90;83.90
14850;DHT22;7517;48.400;11.770;2023-04-24T05:39:40;14.90;84.00
14850;DHT22;7517;48.400;11.770;2023-04-24T05:42:08;14.90;84.10
14850;DHT22;7517;48.400;11.770;2023-04-24T05:44:36;14.90;84.10
14850;DHT22;7517;48.400;11.770;2023-04-24T05:47:03;15.00;84.10
14850;DHT22;7517;48.400;11.770;2023-04-24T05:49:31;15.00;84.00
14850;DHT22;7517;48.400;11.770;2023-04-24T05:51:59;15.00;83.90
14850;DHT22;7517;48.400;11.770;2023-04-24T05:54:26;15.00;84.20
14850;DHT22;7517;48.400;11.770;2023-04-24T05:56:54;15.00;84.20
14850;DHT22;7517;48.400;11.770;2023-04-24T05:59:23;15.10;84.00
14850;DHT22;7517;48.400;11.770;2023-04-24T06:01:50;15.10;84.00
14850;DHT22;7517;48.400;11.770;2023-04-24T06:04:17;15.10;83.80
14850;DHT22;7517;48.400;11.770;2023-04-24T06:06:44;15.10;83.60
14850;DHT22;7517;48.400;11.770;2023-04-24T06:09:11;15.10;83.50
14850;DHT22;7517;48.400;11.770;2023-04-24T06:11:40;15.10;83.50
14850;DHT22;7517;48.400;11.770;2023-04-24T06:14:08;15.10;83.40
14850;DHT22;7517;48.400;11.770;2023-04-24T06:16:36;15.10;83.40
14850;DHT22;7517;48.400;11.770;2023-04-24T06:19:04;15.20;83.40
14850;DHT22;7517;48.400;11.770;2023-04-24T06:21:31;15.10;83.20
14850;DHT22;7517;48.400;11.770;2023-04-24T06:23:58;15.20;83.50
14850;DHT22;7517;48.400;11.770;2023-04-24T06:26:26;15.20;83.30
14850;DHT22;7517;48.400;11.770;2023-04-24T06:28:54;15.20;83.00
14850;DHT22;7517;48.400;11.770;2023-04-24T06:31:21;15.20;83.50
14850;DHT22;7517;48.400;11.770;2023-04-24T06:33:50;15.30;84.20
14850;DHT22;7517;48.400;11.770;2023-04-24T06:36:17;15.30;83.20
14850;DHT22;7517;48.400;11.770;2023-04-24T06:38:44;15.30;83.00
14850;DHT22;7517;48.400;11.770;2023-04-24T06:41:12;15.30;82.80
14850;DHT22;7517;48.400;11.770;2023-04-24T06:43:39;15.40;83.00
14850;DHT22;7517;48.400;11.770;2023-04-24T06:46:07;15.30;83.00
14850;DHT22;7517;48.400;11.770;2023-04-24T06:48:34;15.40;83.10
14850;DHT22;7517;48.400;11.770;2023-04-24T06:51:05;15.40;83.20
14850;DHT22;7517;48.400;11.770;2023-04-24T06:53:33;15.50;83.10
14850;DHT22;7517;48.400;11.770;2023-04-24T06:56:00;15.50;82.80
14850;DHT22;7517;48.400;11.770;2023-04-24T06:58:28;15.50;82.90
14850;DHT22;7517;48.400;11.770;2023-04-24T07:00:56;15.60;83.00
14850;DHT22;7517;48.400;11.770;2023-04-24T07:03:24;15.70;82.80
14850;DHT22;7517;48.400;11.770;2023-04-24T07:05:54;15.60;82.60
14850;DHT22;7517;48.400;11.770;2023-04-24T07:08:23;15.70;82.40
14850;DHT22;7517;48.400;11.770;2023-04-24T07:10:51;15.70;81.70
14850;DHT22;7517;48.400;11.770;2023-04-24T07:13:18;15.70;81.90
14850;DHT22;7517;48.400;11.770;2023-04-24T07:15:45;15.70;81.90
14850;DHT22;7517;48.400;11.770;2023-04-24T07:18:14;15.70;81.80
14850;DHT22;7517;48.400;11.770;2023-04-24T07:20:41;15.80;82.00
14850;DHT22;7517;48.400;11.770;2023-04-24T07:23:09;15.80;81.50
14850;DHT22;7517;48.400;11.770;2023-04-24T07:25:38;15.80;81.50
14850;DHT22;7517;48.400;11.770;2023-04-24T07:28:05;15.90;81.50
14850;DHT22;7517;48.400;11.770;2023-04-24T07:30:32;15.90;81.10
14850;DHT22;7517;48.400;11.770;2023-04-24T07:33:00;16.00;81.30
14850;DHT22;7517;48.400;11.770;2023-04-24T07:35:27;16.00;81.70
14850;DHT22;7517;48.400;11.770;2023-04-24T07:37:55;16.10;81.80
14850;DHT22;7517;48.400;11.770;2023-04-24T07:40:22;16.20;81.90
14850;DHT22;7517;48.400;11.770;2023-04-24T07:42:51;16.30;81.70
14850;DHT22;7517;48.400;11.770;2023-04-24T07:45:19;16.40;81.40
14850;DHT22;7517;48.400;11.770;2023-04-24T07:47:48;16.50;81.10
14850;DHT22;7517;48.400;11.770;2023-04-24T07:50:17;16.50;80.50
14850;DHT22;7517;48.400;11.770;2023-04-24T07:52:45;16.60;80.40
14850;DHT22;7517;48.400;11.770;2023-04-24T07:55:12;16.70;79.70
14850;DHT22;7517;48.400;11.770;2023-04-24T07:57:39;16.70;79.60
14850;DHT22;7517;48.400;11.770;2023-04-24T08:00:10;16.80;79.80
14850;DHT22;7517;48.400;11.770;2023-04-24T08:02:38;16.90;79.30
14850;DHT22;7517;48.400;11.770;2023-04-24T08:05:06;16.90;79.60
14850;DHT22;7517;48.400;11.770;2023-04-24T08:07:34;17.00;79.10
14850;DHT22;7517;48.400;11.770;2023-04-24T08:10:02;17.10;78.90
14850;DHT22;7517;48.400;11.770;2023-04-24T08:12:29;17.20;78.90
14850;DHT22;7517;48.400;11.770;2023-04-24T08:14:57;17.20;78.10
14850;DHT22;7517;48.400;11.770;2023-04-24T08:17:25;17.20;77.70
14850;DHT22;7517;48.400;11.770;2023-04-24T08:19:53;17.20;76.90
14850;DHT22;7517;48.400;11.770;2023-04-24T08:22:26;17.20;77.00
14850;DHT22;7517;48.400;11.770;2023-04-24T08:24:54;17.20;76.90
14850;DHT22;7517;48.400;11.770;2023-04-24T08:27:22;17.20;77.00
14850;DHT22;7517;48.400;11.770;2023-04-24T08:29:50;17.20;76.80
14850;DHT22;7517;48.400;11.770;2023-04-24T08:32:17;17.20;76.10
14850;DHT22;7517;48.400;11.770;2023-04-24T08:34:46;17.20;76.10
14850;DHT22;7517;48.400;11.770;2023-04-24T08:37:13;17.20;75.90
14850;DHT22;7517;48.400;11.770;2023-04-24T08:39:40;17.20;76.00
14850;DHT22;7517;48.400;11.770;2023-04-24T08:42:09;17.20;76.00
14850;DHT22;7517;48.400;11.770;2023-04-24T08:44:38;17.20;74.90
14850;DHT22;7517;48.400;11.770;2023-04-24T08:47:06;17.20;74.50
14850;DHT22;7517;48.400;11.770;2023-04-24T08:49:36;17.10;73.60
14850;DHT22;7517;48.400;11.770;2023-04-24T08:52:05;17.00;73.00
14850;DHT22;7517;48.400;11.770;2023-04-24T08:54:34;16.80;72.60
14850;DHT22;7517;48.400;11.770;2023-04-24T08:57:02;16.70;72.90
14850;DHT22;7517;48.400;11.770;2023-04-24T08:59:30;16.50;73.00
14850;DHT22;7517;48.400;11.770;2023-04-24T09:01:58;16.30;73.20
14850;DHT22;7517;48.400;11.770;2023-04-24T09:04:28;16.20;73.20
14850;DHT22;7517;48.400;11.770;2023-04-24T09:06:57;16.10;73.40
14850;DHT22;7517;48.400;11.770;2023-04-24T09:09:30;15.90;73.70
14850;DHT22;7517;48.400;11.770;2023-04-24T09:12:00;15.80;74.20
14850;DHT22;7517;48.400;11.770;2023-04-24T09:14:29;15.70;74.00
14850;DHT22;7517;48.400;11.770;2023-04-24T09:16:57;15.70;74.40
14850;DHT22;7517;48.400;11.770;2023-04-24T09:19:25;15.70;74.50
14850;DHT22;7517;48.400;11.770;2023-04-24T09:21:53;15.60;74.70
14850;DHT22;7517;48.400;11.770;2023-04-24T09:24:21;15.60;75.40
14850;DHT22;7517;48.400;11.770;2023-04-24T09:26:56;15.60;75.40
14850;DHT22;7517;48.400;11.770;2023-04-24T09:29:24;15.70;75.30
14850;DHT22;7517;48.400;11.770;2023-04-24T09:31:52;15.70;75.40
14850;DHT22;7517;48.400;11.770;2023-04-24T09:34:21;15.80;75.70
14850;DHT22;7517;48.400;11.770;2023-04-24T09:36:51;15.80;75.70
14850;DHT22;7517;48.400;11.770;2023-04-24T09:39:18;15.90;76.00
14850;DHT22;7517;48.400;11.770;2023-04-24T09:41:47;16.00;75.90
14850;DHT22;7517;48.400;11.770;2023-04-24T09:44:17;16.00;75.80
14850;DHT22;7517;48.400;11.770;2023-04-24T09:46:51;16.10;75.40
14850;DHT22;7517;48.400;11.770;2023-04-24T09:49:23;16.20;75.40
14850;DHT22;7517;48.400;11.770;2023-04-24T09:51:52;16.30;75.20
14850;DHT22;7517;48.400;11.770;2023-04-24T09:54:28;16.40;75.30
14850;DHT22;7517;48.400;11.770;2023-04-24T09:56:56;16.50;74.60
14850;DHT22;7517;48.400;11.770;2023-04-24T09:59:27;16.60;74.50
14850;DHT22;7517;48.400;11.770;2023-04-24T10:01:54;16.70;74.60
14850;DHT22;7517;48.400;11.770;2023-04-24T10:04:24;16.80;74.90
14850;DHT22;7517;48.400;11.770;2023-04-24T10:06:54;16.90;74.80
14850;DHT22;7517;48.400;11.770;2023-04-24T10:09:24;17.00;74.60
14850;DHT22;7517;48.400;11.770;2023-04-24T10:11:54;17.10;74.40
14850;DHT22;7517;48.400;11.770;2023-04-24T10:14:22;17.20;73.30
14850;DHT22;7517;48.400;11.770;2023-04-24T10:16:54;17.30;73.00
14850;DHT22;7517;48.400;11.770;2023-04-24T10:19:25;17.30;72.30
14850;DHT22;7517;48.400;11.770;2023-04-24T10:21:53;17.40;72.00
14850;DHT22;7517;48.400;11.770;2023-04-24T10:24:22;17.50;71.10
14850;DHT22;7517;48.400;11.770;2023-04-24T10:26:50;17.50;71.40
14850;DHT22;7517;48.400;11.770;2023-04-24T10:29:19;17.50;71.40
14850;DHT22;7517;48.400;11.770;2023-04-24T10:31:47;17.60;70.90
14850;DHT22;7517;48.400;11.770;2023-04-24T10:34:17;17.60;71.00
14850;DHT22;7517;48.400;11.770;2023-04-24T10:36:51;17.70;71.30
14850;DHT22;7517;48.400;11.770;2023-04-24T10:39:20;17.80;69.80
14850;DHT22;7517;48.400;11.770;2023-04-24T10:41:48;17.80;69.70
14850;DHT22;7517;48.400;11.770;2023-04-24T10:44:17;17.90;69.70
14850;DHT22;7517;48.400;11.770;2023-04-24T10:46:46;17.90;68.40
14850;DHT22;7517;48.400;11.770;2023-04-24T10:49:27;18.00;68.60
14850;DHT22;7517;48.400;11.770;2023-04-24T10:52:00;18.10;68.70
14850;DHT22;7517;48.400;11.770;2023-04-24T10:54:35;18.10;67.90
14850;DHT22;7517;48.400;11.770;2023-04-24T10:57:28;18.20;68.40
14850;DHT22;7517;48.400;11.770;2023-04-24T11:00:30;18.30;67.60
14850;DHT22;7517;48.400;11.770;2023-04-24T11:02:57;18.40;67.70
14850;DHT22;7517;48.400;11.770;2023-04-24T11:05:50;18.40;69.70
14850;DHT22;7517;48.400;11.770;2023-04-24T11:08:32;18.60;68.50
14850;DHT22;7517;48.400;11.770;2023-04-24T11:11:10;18.60;67.30
14850;DHT22;7517;48.400;11.770;2023-04-24T11:14:07;18.70;66.80
14850;DHT22;7517;48.400;11.770;2023-04-24T11:16:37;18.80;65.70
14850;DHT22;7517;48.400;11.770;2023-04-24T11:19:17;18.80;66.80
14850;DHT22;7517;48.400;11.770;2023-04-24T11:21:48;18.80;66.00
14850;DHT22;7517;48.400;11.770;2023-04-24T11:24:31;18.70;66.10
14850;DHT22;7517;48.400;11.770;2023-04-24T11:27:14;18.60;65.70
14850;DHT22;7517;48.400;11.770;2023-04-24T11:29:44;18.40;66.10
14850;DHT22;7517;48.400;11.770;2023-04-24T11:32:24;18.20;66.70
14850;DHT22;7517;48.400;11.770;2023-04-24T11:34:54;18.00;66.80
14850;DHT22;7517;48.400;11.770;2023-04-24T11:37:25;17.80;67.40
14850;DHT22;7517;48.400;11.770;2023-04-24T11:39:54;17.60;68.40
14850;DHT22;7517;48.400;11.770;2023-04-24T11:42:22;17.50;69.20
14850;DHT22;7517;48.400;11.770;2023-04-24T11:44:52;17.40;69.70
14850;DHT22;7517;48.400;11.770;2023-04-24T11:47:27;17.20;70.00
14850;DHT22;7517;48.400;11.770;2023-04-24T11:49:58;17.20;69.70
14850;DHT22;7517;48.400;11.770;2023-04-24T11:52:27;17.10;70.40
14850;DHT22;7517;48.400;11.770;2023-04-24T11:54:56;17.10;70.90
14850;DHT22;7517;48.400;11.770;2023-04-24T11:57:25;17.00;70.90
14850;DHT22;7517;48.400;11.770;2023-04-24T11:59:54;17.00;70.90
14850;DHT22;7517;48.400;11.770;2023-04-24T12:02:22;17.00;71.40
14850;DHT22;7517;48.400;11.770;2023-04-24T12:04:51;17.00;71.70
14850;DHT22;7517;48.400;11.770;2023-04-24T12:07:19;17.00;71.50
14850;DHT22;7517;48.400;11.770;2023-04-24T12:09:55;17.00;71.10
14850;DHT22;7517;48.400;11.770;2023-04-24T12:12:26;17.00;70.80
14850;DHT22;7517;48.400;11.770;2023-04-24T12:14:55;17.00;71.40
14850;DHT22;7517;48.400;11.770;2023-04-24T12:17:29;17.00;71.80
14850;DHT22;7517;48.400;11.770;2023-04-24T12:19:58;17.10;71.70
14850;DHT22;7517;48.400;11.770;2023-04-24T12:22:28;17.10;71.80
14850;DHT22;7517;48.400;11.770;2023-04-24T12:25:11;17.20;71.80
14850;DHT22;7517;48.400;11.770;2023-04-24T12:27:38;17.30;72.30
14850;DHT22;7517;48.400;11.770;2023-04-24T12:30:11;17.30;72.20
14850;DHT22;7517;48.400;11.770;2023-04-24T12:32:46;17.40;71.40
14850;DHT22;7517;48.400;11.770;2023-04-24T12:35:19;17.50;70.90
14850;DHT22;7517;48.400;11.770;2023-04-24T12:37:47;17.60;70.80
14850;DHT22;7517;48.400;11.770;2023-04-24T12:40:17;17.60;70.70
14850;DHT22;7517;48.400;11.770;2023-04-24T12:42:46;17.60;69.80
14850;DHT22;7517;48.400;11.770;2023-04-24T12:45:16;17.70;70.00
14850;DHT22;7517;48.400;11.770;2023-04-24T12:47:46;17.70;69.70
14850;DHT22;7517;48.400;11.770;2023-04-24T12:50:14;17.80;69.20
14850;DHT22;7517;48.400;11.770;2023-04-24T12:52:42;17.80;68.80
14850;DHT22;7517;48.400;11.770;2023-04-24T12:55:10;17.80;68.70
14850;DHT22;7517;48.400;11.770;2023-04-24T12:57:39;17.80;68.30
14850;DHT22;7517;48.400;11.770;2023-04-24T13:00:08;17.90;68.00
14850;DHT22;7517;48.400;11.770;2023-04-24T13:02:49;17.90;67.30
14850;DHT22;7517;48.400;11.770;2023-04-24T13:05:17;18.00;66.50
14850;DHT22;7517;48.400;11.770;2023-04-24T13:07:44;18.00;66.50
14850;DHT22;7517;48.400;11.770;2023-04-24T13:10:11;17.90;66.10
14850;DHT22;7517;48.400;11.770;2023-04-24T13:12:40;18.00;66.00
14850;DHT22;7517;48.400;11.770;2023-04-24T13:15:11;18.00;65.60
14850;DHT22;7517;48.400;11.770;2023-04-24T13:17:38;18.10;65.80
14850;DHT22;7517;48.400;11.770;2023-04-24T13:20:06;18.10;65.30
14850;DHT22;7517;48.400;11.770;2023-04-24T13:22:34;18.10;65.00
14850;DHT22;7517;48.400;11.770;2023-04-24T13:25:03;18.20;64.80
14850;DHT22;7517;48.400;11.770;2023-04-24T13:27:31;18.10;64.40
14850;DHT22;7517;48.400;11.770;2023-04-24T13:30:00;18.20;63.20
14850;DHT22;7517;48.400;11.770;2023-04-24T13:32:28;18.10;62.70
14850;DHT22;7517;48.400;11.770;2023-04-24T13:34:57;18.10;62.80
14850;DHT22;7517;48.400;11.770;2023-04-24T13:37:24;18.20;63.10
14850;DHT22;7517;48.400;11.770;2023-04-24T13:39:51;18.20;62.90
14850;DHT22;7517;48.400;11.770;2023-04-24T13:42:19;18.20;62.20
14850;DHT22;7517;48.400;11.770;2023-04-24T13:44:47;18.30;61.70
14850;DHT22;7517;48.400;11.770;2023-04-24T13:47:16;18.30;61.50
14850;DHT22;7517;48.400;11.770;2023-04-24T13:49:43;18.30;61.30
14850;DHT22;7517;48.400;11.770;2023-04-24T13:52:10;18.30;61.10
14850;DHT22;7517;48.400;11.770;2023-04-24T13:54:37;18.30;61.10
14850;DHT22;7517;48.400;11.770;2023-04-24T13:57:04;18.40;60.50
14850;DHT22;7517;48.400;11.770;2023-04-24T13:59:32;18.40;61.00
14850;DHT22;7517;48.400;11.770;2023-04-24T14:01:59;18.40;60.60
14850;DHT22;7517;48.400;11.770;2023-04-24T14:04:28;18.50;60.70
14850;DHT22;7517;48.400;11.770;2023-04-24T14:06:55;18.50;60.40
14850;DHT22;7517;48.400;11.770;2023-04-24T14:09:22;18.50;60.50
14850;DHT22;7517;48.400;11.770;2023-04-24T14:11:51;18.50;60.60
14850;DHT22;7517;48.400;11.770;2023-04-24T14:14:18;18.50;60.70
14850;DHT22;7517;48.400;11.770;2023-04-24T14:16:45;18.60;59.70
14850;DHT22;7517;48.400;11.770;2023-04-24T14:19:12;18.50;59.50
14850;DHT22;7517;48.400;11.770;2023-04-24T14:21:41;18.50;59.30
14850;DHT22;7517;48.400;11.770;2023-04-24T14:24:08;18.50;59.30
14850;DHT22;7517;48.400;11.770;2023-04-24T14:26:35;18.40;59.00
14850;DHT22;7517;48.400;11.770;2023-04-24T14:29:02;18.40;59.00
14850;DHT22;7517;48.400;11.770;2023-04-24T14:31:30;18.40;59.20
14850;DHT22;7517;48.400;11.770;2023-04-24T14:33:57;18.40;59.40
14850;DHT22;7517;48.400;11.770;2023-04-24T14:36:24;18.40;59.20
14850;DHT22;7517;48.400;11.770;2023-04-24T14:38:53;18.50;59.20
14850;DHT22;7517;48.400;11.770;2023-04-24T14:41:20;18.40;58.20
14850;DHT22;7517;48.400;11.770;2023-04-24T14:43:48;18.40;58.10
14850;DHT22;7517;48.400;11.770;2023-04-24T14:46:15;18.40;57.90
14850;DHT22;7517;48.400;11.770;2023-04-24T14:48:42;18.40;58.20
14850;DHT22;7517;48.400;11.770;2023-04-24T14:51:10;18.40;58.10
14850;DHT22;7517;48.400;11.770;2023-04-24T14:53:37;18.40;58.00
14850;DHT22;7517;48.400;11.770;2023-04-24T14:56:06;18.40;58.00
14850;DHT22;7517;48.400;11.770;2023-04-24T14:58:34;18.40;57.90
14850;DHT22;7517;48.400;11.770;2023-04-24T15:01:01;18.40;57.50
14850;DHT22;7517;48.400;11.770;2023-04-24T15:03:28;18.40;58.20
14850;DHT22;7517;48.400;11.770;2023-04-24T15:05:56;18.40;58.30
14850;DHT22;7517;48.400;11.770;2023-04-24T15:08:24;18.40;58.30
14850;DHT22;7517;48.400;11.770;2023-04-24T15:10:51;18.40;57.30
14850;DHT22;7517;48.400;11.770;2023-04-24T15:13:19;18.40;57.50
14850;DHT22;7517;48.400;11.770;2023-04-24T15:15:47;18.30;57.30
14850;DHT22;7517;48.400;11.770;2023-04-24T15:18:14;18.30;56.70
14850;DHT22;7517;48.400;11.770;2023-04-24T15:20:41;18.30;56.50
14850;DHT22;7517;48.400;11.770;2023-04-24T15:23:09;18.20;56.90
14850;DHT22;7517;48.400;11.770;2023-04-24T15:25:37;18.20;56.70
14850;DHT22;7517;48.400;11.770;2023-04-24T15:28:05;18.20;56.20
14850;DHT22;7517;48.400;11.770;2023-04-24T15:30:34;18.10;56.70
14850;DHT22;7517;48.400;11.770;2023-04-24T15:33:01;18.10;56.50
14850;DHT22;7517;48.400;11.770;2023-04-24T15:35:29;18.10;56.70
14850;DHT22;7517;48.400;11.770;2023-04-24T15:37:56;18.00;56.50
14850;DHT22;7517;48.400;11.770;2023-04-24T15:40:23;18.00;56.50